Time;durP1;ratioP1;P1;durP2;ratioP2;P2;SDS_P1;SDS_P2;PMS_P1;PMS_P2;Temp;Humidity;BMP_temperature;BMP_pressure;BME280_temperature;BME280_humidity;BME280_pressure;Samples;Min_cycle;Max_cycle;Signal;HPM_P1;HPM_P2
2023/10/25 00:02:13;;;;;;;;;;;;;;;10.35;100.00;98555.81;4930556;29;19930;-78
2023/10/25 00:04:38;;;;;;;;;;;;;;;10.34;100.00;98554.16;4929410;29;20308;-79
2023/10/25 00:07:03;;;;;;;;;;;;;;;10.30;100.00;98552.84;4930204;29;20059;-78
2023/10/25 00:09:29;;;;;;;;;;;;;;;10.27;100.00;98541.63;4931572;29;19990;-80
2023/10/25 00:11:54;;;;;;;;;;;;;;;10.26;100.00;98536.50;4926945;29;19985;-80
2023/10/25 00:14:20;;;;;;;;;;;;;;;10.20;100.00;98537.16;4931639;29;20009;-80
2023/10/25 00:16:45;;;;;;;;;;;;;;;10.20;100.00;98531.91;4924833;29;19927;-80
2023/10/25 00:19:10;;;;;;;;;;;;;;;10.23;100.00;98535.03;4930191;29;19922;-79
2023/10/25 00:21:36;;;;;;;;;;;;;;;10.25;100.00;98538.31;4929805;29;19927;-79
2023/10/25 00:24:01;;;;;;;;;;;;;;;10.19;100.00;98525.78;4929873;29;19926;-79
2023/10/25 00:26:26;;;;;;;;;;;;;;;10.11;100.00;98532.88;4930809;29;19923;-79
2023/10/25 00:28:53;;;;;;;;;;;;;;;9.97;100.00;98529.06;4932746;29;19923;-79
2023/10/25 00:31:19;;;;;;;;;;;;;;;9.96;100.00;98529.22;4930354;29;19923;-81
2023/10/25 00:33:44;;;;;;;;;;;;;;;9.97;100.00;98530.88;4928135;29;19978;-80
2023/10/25 00:36:10;;;;;;;;;;;;;;;9.97;100.00;98533.50;4932210;29;19997;-80
2023/10/25 00:38:35;;;;;;;;;;;;;;;9.78;100.00;98532.00;4922660;29;19929;-79
2023/10/25 00:41:00;;;;;;;;;;;;;;;9.73;100.00;98527.22;4944143;28;19972;-80
2023/10/25 00:43:27;;;;;;;;;;;;;;;9.75;100.00;98522.63;4929366;29;19962;-80
2023/10/25 00:45:59;;;;;;;;;;;;;;;9.82;100.00;98528.06;4926733;29;20363;-79
2023/10/25 00:48:25;;;;;;;;;;;;;;;9.88;100.00;98531.88;4928842;29;19945;-79
2023/10/25 00:50:51;;;;;;;;;;;;;;;9.89;100.00;98529.06;4928636;29;20584;-79
2023/10/25 00:53:17;;;;;;;;;;;;;;;9.90;100.00;98525.44;4926461;29;19950;-79
2023/10/25 00:55:42;;;;;;;;;;;;;;;9.93;100.00;98526.91;4930601;29;20307;-79
2023/10/25 00:58:08;;;;;;;;;;;;;;;9.91;100.00;98528.88;4920583;29;19930;-78
2023/10/25 01:00:34;;;;;;;;;;;;;;;9.90;100.00;98525.44;4941516;29;19934;-79
2023/10/25 01:03:04;;;;;;;;;;;;;;;9.93;100.00;98524.28;4927431;29;20232;-80
2023/10/25 01:05:30;;;;;;;;;;;;;;;9.77;100.00;98522.47;4925621;29;19927;-79
2023/10/25 01:07:55;;;;;;;;;;;;;;;9.67;100.00;98529.69;4931821;29;20410;-79
2023/10/25 01:10:20;;;;;;;;;;;;;;;9.66;100.00;98522.78;4927630;29;19922;-79
2023/10/25 01:12:46;;;;;;;;;;;;;;;9.64;100.00;98524.75;4927916;29;19930;-79
2023/10/25 01:15:12;;;;;;;;;;;;;;;9.49;100.00;98526.34;4930403;29;19923;-79
2023/10/25 01:17:37;;;;;;;;;;;;;;;9.52;100.00;98515.50;4929504;29;19923;-78
2023/10/25 01:20:03;;;;;;;;;;;;;;;9.48;100.00;98529.97;4927915;29;20031;-79
2023/10/25 01:22:28;;;;;;;;;;;;;;;9.35;100.00;98527.81;4928830;29;19923;-79
2023/10/25 01:24:53;;;;;;;;;;;;;;;9.26;100.00;98524.31;4930473;29;20310;-79
2023/10/25 01:27:19;;;;;;;;;;;;;;;9.22;100.00;98520.34;4928996;29;19930;-77
2023/10/25 01:29:44;;;;;;;;;;;;;;;9.23;100.00;98523.81;4930270;29;20403;-78
2023/10/25 01:32:09;;;;;;;;;;;;;;;9.18;100.00;98518.19;4928255;29;19927;-80
2023/10/25 01:34:35;;;;;;;;;;;;;;;9.13;100.00;98521.28;4929205;29;19930;-79
2023/10/25 01:37:00;;;;;;;;;;;;;;;9.17;100.00;98522.63;4927664;29;19938;-80
2023/10/25 01:39:25;;;;;;;;;;;;;;;9.18;100.00;98518.19;4925399;29;19937;-78
2023/10/25 01:41:51;;;;;;;;;;;;;;;9.17;100.00;98522.63;4935550;29;19922;-78
2023/10/25 01:44:16;;;;;;;;;;;;;;;9.26;100.00;98508.50;4926627;29;20025;-79
2023/10/25 01:46:41;;;;;;;;;;;;;;;9.20;100.00;98506.50;4926256;29;19918;-81
2023/10/25 01:49:07;;;;;;;;;;;;;;;9.27;100.00;98506.69;4929955;29;19923;-80
2023/10/25 01:51:33;;;;;;;;;;;;;;;9.32;100.00;98510.50;4925418;29;19918;-80
2023/10/25 01:53:58;;;;;;;;;;;;;;;9.40;100.00;98518.44;4928777;29;19922;-79
2023/10/25 01:56:23;;;;;;;;;;;;;;;9.49;100.00;98528.97;4929740;29;19923;-80
2023/10/25 01:58:49;;;;;;;;;;;;;;;9.50;100.00;98522.72;4931129;29;20078;-79
2023/10/25 02:01:14;;;;;;;;;;;;;;;9.44;100.00;98513.66;4931243;29;19930;-78
2023/10/25 02:03:39;;;;;;;;;;;;;;;9.47;100.00;98508.09;4930759;29;19927;-79
2023/10/25 02:06:14;;;;;;;;;;;;;;;9.50;100.00;98513.00;4929195;29;19941;-79
2023/10/25 02:08:40;;;;;;;;;;;;;;;9.42;100.00;98505.13;4948238;29;19934;-80
2023/10/25 02:11:06;;;;;;;;;;;;;;;9.49;100.00;98497.38;4933018;29;20018;-79
2023/10/25 02:13:31;;;;;;;;;;;;;;;9.43;100.00;98497.03;4943211;29;19975;-79
2023/10/25 02:15:56;;;;;;;;;;;;;;;9.46;100.00;98501.16;4932517;29;19926;-80
2023/10/25 02:18:22;;;;;;;;;;;;;;;9.48;100.00;98506.28;4928029;29;20300;-80
2023/10/25 02:20:47;;;;;;;;;;;;;;;9.45;100.00;98505.59;4930464;29;19930;-80
2023/10/25 02:23:12;;;;;;;;;;;;;;;9.41;100.00;98509.56;4929499;29;20002;-79
2023/10/25 02:25:38;;;;;;;;;;;;;;;9.38;100.00;98503.78;4945620;29;20008;-78
2023/10/25 02:28:03;;;;;;;;;;;;;;;9.45;100.00;98500.34;4930466;29;20352;-79
2023/10/25 02:30:29;;;;;;;;;;;;;;;9.55;100.00;98504.63;4931710;29;20014;-79
2023/10/25 02:32:54;;;;;;;;;;;;;;;9.64;100.00;98514.22;4929710;29;19950;-79
2023/10/25 02:35:19;;;;;;;;;;;;;;;9.65;100.00;98516.69;4932911;29;19958;-79
2023/10/25 02:37:45;;;;;;;;;;;;;;;9.64;100.00;98525.56;4930716;29;19919;-80
2023/10/25 02:40:10;;;;;;;;;;;;;;;9.64;100.00;98522.13;4933227;29;19922;-80
2023/10/25 02:42:36;;;;;;;;;;;;;;;9.66;100.00;98522.78;4934319;29;19927;-78
2023/10/25 02:45:01;;;;;;;;;;;;;;;9.67;100.00;98527.03;4939157;29;19981;-79
2023/10/25 02:47:26;;;;;;;;;;;;;;;9.69;100.00;98525.06;4929057;29;19923;-80
2023/10/25 02:49:52;;;;;;;;;;;;;;;9.75;100.00;98529.69;4932694;29;20038;-79
2023/10/25 02:52:18;;;;;;;;;;;;;;;9.77;100.00;98530.38;4930391;29;20375;-80
2023/10/25 02:54:43;;;;;;;;;;;;;;;9.70;100.00;98530.19;4930010;29;19926;-80
2023/10/25 02:57:08;;;;;;;;;;;;;;;9.67;100.00;98534.94;4932907;29;19927;-80
2023/10/25 02:59:34;;;;;;;;;;;;;;;9.71;100.00;98531.03;4930752;29;19930;-80
2023/10/25 03:02:00;;;;;;;;;;;;;;;9.76;100.00;98541.88;4933412;29;19933;-78
2023/10/25 03:04:26;;;;;;;;;;;;;;;9.77;100.00;98543.53;4929384;29;20017;-81
2023/10/25 03:06:51;;;;;;;;;;;;;;;9.75;100.00;98542.88;4929811;29;20006;-79
2023/10/25 03:09:17;;;;;;;;;;;;;;;9.77;100.00;98547.00;4930183;29;19923;-80
2023/10/25 03:11:42;;;;;;;;;;;;;;;9.73;100.00;98542.19;4930335;29;20631;-80
2023/10/25 03:14:07;;;;;;;;;;;;;;;9.65;100.00;98543.03;4929532;29;19922;-80
2023/10/25 03:16:33;;;;;;;;;;;;;;;9.65;100.00;98531.66;4931793;29;19938;-80
2023/10/25 03:18:59;;;;;;;;;;;;;;;9.68;100.00;98536.59;4927604;29;19933;-79
2023/10/25 03:21:24;;;;;;;;;;;;;;;9.74;100.00;98535.94;4933649;29;19958;-79
2023/10/25 03:23:50;;;;;;;;;;;;;;;9.73;100.00;98534.28;4929437;29;19926;-79
2023/10/25 03:26:16;;;;;;;;;;;;;;;9.77;100.00;98533.84;4928679;29;19978;-79
2023/10/25 03:28:41;;;;;;;;;;;;;;;9.74;100.00;98530.69;4929806;29;20401;-80
2023/10/25 03:31:10;;;;;;;;;;;;;;;9.65;100.00;98534.31;4934313;29;19996;-79
2023/10/25 03:33:36;;;;;;;;;;;;;;;9.70;100.00;98529.38;4927383;29;19923;-79
2023/10/25 03:36:01;;;;;;;;;;;;;;;9.67;100.00;98541.03;4929226;29;19922;-79
2023/10/25 03:38:27;;;;;;;;;;;;;;;9.69;100.00;98544.34;4931399;29;20324;-80
2023/10/25 03:41:01;;;;;;;;;;;;;;;9.77;100.00;98540.91;4930615;29;19970;-79
2023/10/25 03:43:26;;;;;;;;;;;;;;;9.80;100.00;98536.13;4930301;29;19937;-80
2023/10/25 03:45:53;;;;;;;;;;;;;;;9.84;100.00;98547.16;4927296;29;19999;-80
2023/10/25 03:48:18;;;;;;;;;;;;;;;9.85;100.00;98543.53;4927260;29;19924;-80
2023/10/25 03:50:44;;;;;;;;;;;;;;;9.72;100.00;98532.69;4930110;29;20433;-79
2023/10/25 03:53:09;;;;;;;;;;;;;;;9.70;100.00;98529.38;4930171;29;19933;-80
2023/10/25 03:55:34;;;;;;;;;;;;;;;9.66;100.00;98539.38;4928623;29;19923;-80
2023/10/25 03:58:00;;;;;;;;;;;;;;;9.67;100.00;98545.47;4933550;29;19929;-80
2023/10/25 04:00:26;;;;;;;;;;;;;;;9.60;100.00;98549.78;4928803;29;19975;-80
2023/10/25 04:02:52;;;;;;;;;;;;;;;9.57;100.00;98550.91;4929379;29;20286;-81
2023/10/25 04:05:17;;;;;;;;;;;;;;;9.58;100.00;98541.19;4927611;29;19948;-81
2023/10/25 04:07:42;;;;;;;;;;;;;;;9.70;100.00;98550.44;4929607;29;19970;-79
2023/10/25 04:10:08;;;;;;;;;;;;;;;9.71;100.00;98545.03;4930893;29;19990;-79
2023/10/25 04:12:33;;;;;;;;;;;;;;;9.68;100.00;98547.97;4929626;29;19938;-80
2023/10/25 04:14:59;;;;;;;;;;;;;;;9.66;100.00;98563.09;4928846;29;20490;-80
2023/10/25 04:17:24;;;;;;;;;;;;;;;9.62;100.00;98563.59;4946898;29;19930;-80
2023/10/25 04:19:50;;;;;;;;;;;;;;;9.69;100.00;98560.16;4929588;29;19926;-79
2023/10/25 04:24:43;;;;;;;;;;;;;;;9.61;100.00;98552.22;4937515;29;19926;-80
2023/10/25 04:27:09;;;;;;;;;;;;;;;9.64;100.00;98551.91;4938745;29;19934;-79
2023/10/25 04:29:34;;;;;;;;;;;;;;;9.59;100.00;98553.38;4944466;29;19927;-80
2023/10/25 04:31:59;;;;;;;;;;;;;;;9.53;100.00;98544.31;4943625;28;19927;-80
2023/10/25 04:34:25;;;;;;;;;;;;;;;9.60;100.00;98545.28;4941657;29;19929;-81
2023/10/25 04:36:50;;;;;;;;;;;;;;;9.62;100.00;98545.16;4946039;29;19945;-81
2023/10/25 04:39:16;;;;;;;;;;;;;;;9.66;100.00;98549.13;4943876;29;19922;-80
2023/10/25 04:41:41;;;;;;;;;;;;;;;9.74;100.00;98557.84;4941810;29;20323;-80
2023/10/25 04:44:06;;;;;;;;;;;;;;;9.70;100.00;98560.97;4944988;29;19927;-80
2023/10/25 04:46:32;;;;;;;;;;;;;;;9.58;100.00;98557.81;4942818;29;19918;-80
2023/10/25 04:48:57;;;;;;;;;;;;;;;9.50;100.00;98559.59;4943257;28;19931;-79
2023/10/25 04:51:22;;;;;;;;;;;;;;;9.51;100.00;98555.97;4944174;29;19922;-80
2023/10/25 04:53:48;;;;;;;;;;;;;;;9.57;100.00;98560.59;4941941;29;19949;-80
2023/10/25 04:56:13;;;;;;;;;;;;;;;9.52;100.00;98568.16;4943685;29;20386;-84
2023/10/25 04:58:38;;;;;;;;;;;;;;;9.55;100.00;98573.09;4945830;29;19923;-84
2023/10/25 05:01:13;;;;;;;;;;;;;;;9.64;100.00;98574.78;4919525;29;19980;-80
2023/10/25 05:03:39;;;;;;;;;;;;;;;9.69;100.00;98575.13;4936547;29;19934;-78
2023/10/25 05:06:06;;;;;;;;;;;;;;;9.73;100.00;98574.63;4943483;29;19927;-79
2023/10/25 05:08:31;;;;;;;;;;;;;;;9.75;100.00;98571.84;4945749;28;19929;-81
2023/10/25 05:10:57;;;;;;;;;;;;;;;9.78;100.00;98558.34;4941753;29;19923;-84
2023/10/25 05:13:22;;;;;;;;;;;;;;;9.83;100.00;98559.53;4943174;29;19955;-84
2023/10/25 05:15:47;;;;;;;;;;;;;;;9.89;100.00;98562.50;4939609;29;20363;-81
2023/10/25 05:18:13;;;;;;;;;;;;;;;9.90;100.00;98570.22;4941044;28;20310;-80
2023/10/25 05:20:41;;;;;;;;;;;;;;;9.92;100.00;98565.63;4944465;29;19922;-83
2023/10/25 05:23:07;;;;;;;;;;;;;;;9.92;100.00;98560.34;4939034;29;19933;-78
2023/10/25 05:25:33;;;;;;;;;;;;;;;9.90;100.00;98557.03;4924746;29;19933;-83
2023/10/25 05:28:01;;;;;;;;;;;;;;;9.94;100.00;98553.13;4940248;29;20602;-86
2023/10/25 05:30:26;;;;;;;;;;;;;;;9.91;100.00;98558.69;4941039;29;19929;-83
2023/10/25 05:32:52;;;;;;;;;;;;;;;9.92;100.00;98570.91;4941707;28;19926;-89
2023/10/25 05:35:18;;;;;;;;;;;;;;;9.94;100.00;98579.47;4942547;28;19934;-89
2023/10/25 05:37:43;;;;;;;;;;;;;;;9.86;100.00;98575.00;4943160;29;20434;-88
2023/10/25 05:40:09;;;;;;;;;;;;;;;9.85;100.00;98575.16;4944397;29;20404;-89
2023/10/25 05:42:47;;;;;;;;;;;;;;;9.90;100.00;98583.41;4946682;29;19966;-88
2023/10/25 05:45:13;;;;;;;;;;;;;;;9.84;100.00;98590.13;4946043;29;19922;-86
2023/10/25 05:47:38;;;;;;;;;;;;;;;9.83;100.00;98592.97;4941677;29;20375;-88
2023/10/25 05:50:04;;;;;;;;;;;;;;;9.74;100.00;98593.91;4947387;29;19938;-89
2023/10/25 05:52:30;;;;;;;;;;;;;;;9.80;100.00;98594.09;4606917;29;9999835;-88
2023/10/25 05:54:55;;;;;;;;;;;;;;;9.78;100.00;98588.16;4950137;29;19945;-89
2023/10/25 05:57:20;;;;;;;;;;;;;;;9.85;100.00;98585.69;4946119;28;19927;-89
2023/10/25 05:59:46;;;;;;;;;;;;;;;9.82;100.00;98586.03;4943705;29;20327;-87
2023/10/25 06:02:14;;;;;;;;;;;;;;;9.80;100.00;98580.91;4256039;29;10000801;-86
2023/10/25 06:04:40;;;;;;;;;;;;;;;9.84;100.00;98573.50;4949224;29;19926;-85
2023/10/25 06:07:06;;;;;;;;;;;;;;;9.88;100.00;98568.75;4947612;29;19980;-87
2023/10/25 06:09:31;;;;;;;;;;;;;;;9.82;100.00;98570.22;4946256;29;19930;-87
2023/10/25 06:11:57;;;;;;;;;;;;;;;9.85;100.00;98575.16;4928379;29;19923;-88
2023/10/25 06:14:22;;;;;;;;;;;;;;;9.86;100.00;98579.44;4951072;29;19922;-88
2023/10/25 06:16:47;;;;;;;;;;;;;;;9.92;100.00;98589.34;4947900;29;20402;-87
2023/10/25 06:19:13;;;;;;;;;;;;;;;9.93;100.00;98606.81;4948120;28;20299;-86
2023/10/25 06:21:38;;;;;;;;;;;;;;;9.94;100.00;98605.81;4947693;29;19923;-86
2023/10/25 06:24:03;;;;;;;;;;;;;;;9.96;100.00;98610.91;4951492;28;20088;-87
2023/10/25 06:26:29;;;;;;;;;;;;;;;9.88;100.00;98610.91;4948531;28;20298;-85
2023/10/25 06:28:54;;;;;;;;;;;;;;;9.89;100.00;98612.56;4947227;29;19951;-87
2023/10/25 06:31:19;;;;;;;;;;;;;;;9.95;100.00;98610.13;4946747;28;20406;-88
2023/10/25 06:33:45;;;;;;;;;;;;;;;9.96;100.00;98608.28;4950707;29;20396;-85
2023/10/25 06:36:10;;;;;;;;;;;;;;;9.97;100.00;98600.22;4947924;29;19930;-86
2023/10/25 06:38:36;;;;;;;;;;;;;;;9.87;100.00;98604.81;4945664;29;19930;-87
2023/10/25 06:41:01;;;;;;;;;;;;;;;9.87;100.00;98604.81;4943961;29;19922;-85
2023/10/25 06:43:30;;;;;;;;;;;;;;;9.94;100.00;98608.47;4939593;29;19930;-81
2023/10/25 06:45:56;;;;;;;;;;;;;;;9.92;100.00;98613.06;4943682;28;19934;-81
2023/10/25 06:48:21;;;;;;;;;;;;;;;9.82;100.00;98617.66;4941010;29;19923;-82
2023/10/25 06:50:47;;;;;;;;;;;;;;;9.80;100.00;98616.97;4945587;28;20010;-82
2023/10/25 06:53:13;;;;;;;;;;;;;;;9.77;100.00;98615.50;4950326;29;20021;-81
2023/10/25 06:55:39;;;;;;;;;;;;;;;9.78;100.00;98621.56;4945720;28;20571;-82
2023/10/25 06:58:05;;;;;;;;;;;;;;;9.80;100.00;98614.34;4950435;29;20029;-85
2023/10/25 07:00:31;;;;;;;;;;;;;;;9.84;100.00;98620.94;4946239;29;19940;-83
2023/10/25 07:03:01;;;;;;;;;;;;;;;9.82;100.00;98633.47;4947455;28;19922;-83
2023/10/25 07:05:27;;;;;;;;;;;;;;;9.72;100.00;98638.84;4947172;29;19923;-84
2023/10/25 07:07:53;;;;;;;;;;;;;;;9.70;100.00;98645.28;4947992;29;19926;-83
2023/10/25 07:10:19;;;;;;;;;;;;;;;9.68;100.00;98655.13;4944538;28;19985;-83
2023/10/25 07:12:45;;;;;;;;;;;;;;;9.62;100.00;98653.13;4945116;29;19977;-82
2023/10/25 07:15:11;;;;;;;;;;;;;;;9.61;100.00;98662.00;4945751;29;19922;-81
2023/10/25 07:17:37;;;;;;;;;;;;;;;9.70;100.00;98668.97;4947022;29;19922;-80
2023/10/25 07:20:06;;;;;;;;;;;;;;;9.75;100.00;98658.78;4931062;29;19927;-82
2023/10/25 07:22:32;;;;;;;;;;;;;;;9.74;100.00;98665.88;4952089;29;20013;-83
2023/10/25 07:24:57;;;;;;;;;;;;;;;9.66;100.00;98670.28;4944168;29;20013;-81
2023/10/25 07:27:23;;;;;;;;;;;;;;;9.55;100.00;98662.66;4947270;29;20392;-84
2023/10/25 07:29:48;;;;;;;;;;;;;;;9.47;100.00;98681.06;4943474;29;19935;-84
2023/10/25 07:32:14;;;;;;;;;;;;;;;9.43;100.00;98681.34;4945064;28;19922;-83
2023/10/25 07:34:40;;;;;;;;;;;;;;;9.47;100.00;98681.88;4942087;29;19934;-81
2023/10/25 07:37:05;;;;;;;;;;;;;;;9.54;100.00;98682.91;4944372;29;19966;-83
2023/10/25 07:39:30;;;;;;;;;;;;;;;9.51;100.00;98682.38;4937832;29;20017;-84
2023/10/25 07:41:56;;;;;;;;;;;;;;;9.49;100.00;98692.25;4937828;29;19929;-83
2023/10/25 07:47:03;;;;;;;;;;;;;;;9.57;100.00;98682.59;5259868;23;19958;-84
2023/10/25 07:49:28;;;;;;;;;;;;;;;9.53;100.00;98686.53;4977037;28;19922;-82
2023/10/25 07:51:56;;;;;;;;;;;;;;;9.55;100.00;98688.97;4962693;28;19922;-82
2023/10/25 07:54:22;;;;;;;;;;;;;;;9.55;100.00;98688.97;4975028;28;19924;-81
2023/10/25 07:56:47;;;;;;;;;;;;;;;9.48;100.00;98698.53;4971069;28;19932;-83
2023/10/25 07:59:12;;;;;;;;;;;;;;;9.54;100.00;98697.91;4968951;28;19922;-82
2023/10/25 08:01:38;;;;;;;;;;;;;;;9.56;100.00;98701.19;4972355;28;19997;-82
2023/10/25 08:04:06;;;;;;;;;;;;;;;9.61;100.00;98701.53;4976570;28;19933;-83
2023/10/25 08:06:32;;;;;;;;;;;;;;;9.54;100.00;98700.53;4970322;28;19965;-84
2023/10/25 08:08:57;;;;;;;;;;;;;;;9.41;100.00;98693.03;4972952;28;19921;-85
2023/10/25 08:11:22;;;;;;;;;;;;;;;9.36;100.00;98690.06;4966869;28;19922;-83
2023/10/25 08:13:49;;;;;;;;;;;;;;;9.47;100.00;98688.97;4975595;28;19946;-82
2023/10/25 08:16:15;;;;;;;;;;;;;;;9.53;100.00;98690.97;4987389;28;19933;-81
2023/10/25 08:18:40;;;;;;;;;;;;;;;9.60;100.00;98689.38;4985022;28;19993;-81
2023/10/25 08:21:11;;;;;;;;;;;;;;;9.68;100.00;98694.66;4987827;28;19933;-82
2023/10/25 08:23:38;;;;;;;;;;;;;;;9.75;100.00;98703.56;4983637;28;20013;-86
2023/10/25 08:26:04;;;;;;;;;;;;;;;9.70;100.00;98708.50;4986204;28;19919;-82
2023/10/25 08:28:29;;;;;;;;;;;;;;;9.68;100.00;98705.19;4986622;28;19965;-81
2023/10/25 08:30:54;;;;;;;;;;;;;;;9.71;100.00;98699.63;4987818;28;19925;-87
2023/10/25 08:33:20;;;;;;;;;;;;;;;9.70;100.00;98698.78;4985187;28;19914;-83
2023/10/25 08:35:45;;;;;;;;;;;;;;;9.74;100.00;98694.03;4988489;28;19933;-81
2023/10/25 08:38:10;;;;;;;;;;;;;;;9.72;100.00;98696.81;4981174;28;19929;-84
2023/10/25 08:40:40;;;;;;;;;;;;;;;9.81;100.00;98692.41;4986001;28;19937;-86
2023/10/25 08:43:05;;;;;;;;;;;;;;;9.89;100.00;98689.81;4992297;28;19936;-89
2023/10/25 08:45:34;;;;;;;;;;;;;;;9.98;100.00;98686.22;4989174;28;19918;-89
2023/10/25 08:48:00;;;;;;;;;;;;;;;10.07;100.00;98693.13;4964070;28;19936;-84
2023/10/25 08:50:26;;;;;;;;;;;;;;;10.13;100.00;98697.78;4968704;28;19922;-81
2023/10/25 08:52:52;;;;;;;;;;;;;;;10.20;100.00;98692.72;4976197;28;19922;-86
2023/10/25 08:55:19;;;;;;;;;;;;;;;10.21;100.00;98691.72;4988972;28;19950;-87
2023/10/25 08:57:44;;;;;;;;;;;;;;;10.30;100.00;98695.22;4977631;28;20394;-90
2023/10/25 09:00:11;;;;;;;;;;;;;;;10.37;100.00;98696.25;4969999;28;19935;-90
2023/10/25 09:02:38;;;;;;;;;;;;;;;10.46;100.00;98708.44;4965065;28;20806;-91
2023/10/25 09:05:03;;;;;;;;;;;;;;;10.50;100.00;98715.84;4965479;28;19922;-91
2023/10/25 09:07:29;;;;;;;;;;;;;;;10.58;100.00;98712.41;4968536;28;19929;-91
2023/10/25 09:09:55;;;;;;;;;;;;;;;10.62;100.00;98713.72;4970635;28;19929;-92
2023/10/25 09:12:20;;;;;;;;;;;;;;;10.70;100.00;98707.63;4969565;28;19929;-88
2023/10/25 09:14:47;;;;;;;;;;;;;;;10.74;100.00;98699.22;4971262;28;19929;-89
2023/10/25 09:17:12;;;;;;;;;;;;;;;10.86;100.00;98697.91;4971113;28;20379;-90
2023/10/25 09:19:42;;;;;;;;;;;;;;;10.97;100.00;98694.94;4968733;28;19929;-85
2023/10/25 09:22:19;;;;;;;;;;;;;;;11.08;100.00;98680.56;4969540;28;19933;-90
2023/10/25 09:24:46;;;;;;;;;;;;;;;11.14;100.00;98684.34;4974107;28;19992;-88
2023/10/25 09:27:11;;;;;;;;;;;;;;;11.19;100.00;98700.53;4966792;28;19969;-88
2023/10/25 09:29:37;;;;;;;;;;;;;;;11.22;100.00;98708.13;4978728;28;19926;-86
2023/10/25 09:32:06;;;;;;;;;;;;;;;11.22;100.00;98713.41;4971158;28;19926;-87
2023/10/25 09:34:32;;;;;;;;;;;;;;;11.14;100.00;98714.22;4970268;28;19997;-84
2023/10/25 09:36:59;;;;;;;;;;;;;;;11.19;100.00;98721.66;4972997;28;20359;-87
2023/10/25 09:39:24;;;;;;;;;;;;;;;11.24;100.00;98708.78;4281690;28;10000714;-87
2023/10/25 09:41:52;;;;;;;;;;;;;;;11.29;100.00;98711.75;4970226;28;19929;-86
2023/10/25 09:44:19;;;;;;;;;;;;;;;11.27;100.00;98734.84;4963216;28;20374;-87
2023/10/25 09:46:45;;;;;;;;;;;;;;;11.28;100.00;98744.41;4966885;28;20001;-87
2023/10/25 09:49:14;;;;;;;;;;;;;;;11.13;100.00;98746.09;4965158;28;19927;-87
2023/10/25 09:51:48;;;;;;;;;;;;;;;11.03;100.00;98740.97;4970299;28;19922;-87
2023/10/25 09:54:18;;;;;;;;;;;;;;;11.15;100.00;98750.19;4967207;28;19922;-87
2023/10/25 09:56:45;;;;;;;;;;;;;;;11.21;100.00;98754.00;4974597;28;19922;-87
2023/10/25 09:59:11;;;;;;;;;;;;;;;11.27;100.00;98743.59;4276819;28;9999969;-86
2023/10/25 10:01:38;;;;;;;;;;;;;;;11.25;100.00;98736.84;4964296;28;19934;-86
2023/10/25 10:04:06;;;;;;;;;;;;;;;11.14;100.00;98732.69;4967945;28;20006;-87
2023/10/25 10:06:37;;;;;;;;;;;;;;;11.14;100.00;98731.88;4970845;28;20391;-86
2023/10/25 10:09:05;;;;;;;;;;;;;;;11.18;100.00;98726.13;4963959;28;19928;-82
2023/10/25 10:11:36;;;;;;;;;;;;;;;11.22;100.00;98729.25;4968672;28;19927;-85
2023/10/25 10:14:20;;;;;;;;;;;;;;;11.23;100.00;98731.72;4970041;28;19922;-86
2023/10/25 10:16:45;;;;;;;;;;;;;;;11.27;100.00;98726.91;4966297;28;19922;-86
2023/10/25 10:19:11;;;;;;;;;;;;;;;11.30;100.00;98721.31;4960597;28;19950;-86
2023/10/25 10:21:56;;;;;;;;;;;;;;;11.31;100.00;98712.41;4967819;28;19927;-85
2023/10/25 10:24:42;;;;;;;;;;;;;;;11.24;100.00;98716.72;4965191;28;20149;-84
2023/10/25 10:27:08;;;;;;;;;;;;;;;11.27;100.00;98721.63;4969529;28;20499;-87
2023/10/25 10:29:33;;;;;;;;;;;;;;;11.37;100.00;98725.75;4966361;28;19929;-85
2023/10/25 10:32:00;;;;;;;;;;;;;;;11.48;100.00;98719.31;4968825;28;20303;-87
2023/10/25 10:34:57;;;;;;;;;;;;;;;11.57;100.00;98706.88;4967729;28;19973;-85
2023/10/25 10:37:24;;;;;;;;;;;;;;;11.58;100.00;98698.78;4961011;28;19964;-87
2023/10/25 10:39:58;;;;;;;;;;;;;;;11.61;100.00;98692.31;4967427;28;19925;-85
2023/10/25 10:42:30;;;;;;;;;;;;;;;11.68;100.00;98682.72;4967363;28;20017;-86
2023/10/25 10:45:01;;;;;;;;;;;;;;;11.78;100.00;98684.19;4969628;28;19977;-85
2023/10/25 10:47:38;;;;;;;;;;;;;;;11.88;100.00;98673.44;4975135;28;19937;-87
2023/10/25 10:50:07;;;;;;;;;;;;;;;11.89;100.00;98659.22;4968242;28;19939;-88
2023/10/25 10:52:32;;;;;;;;;;;;;;;12.02;100.00;98653.34;4966004;28;20006;-86
2023/10/25 10:54:58;;;;;;;;;;;;;;;12.06;100.00;98646.75;4964695;28;20257;-86
2023/10/25 10:57:25;;;;;;;;;;;;;;;12.09;100.00;98667.53;4966466;28;19929;-85
2023/10/25 10:59:50;;;;;;;;;;;;;;;12.15;100.00;98664.19;4965067;28;20477;-86
2023/10/25 11:02:16;;;;;;;;;;;;;;;12.19;100.00;98652.28;4965514;28;19930;-88
2023/10/25 11:04:42;;;;;;;;;;;;;;;12.16;100.00;98656.09;4961516;28;20251;-87
2023/10/25 11:07:07;;;;;;;;;;;;;;;12.19;100.00;98670.81;4971822;28;19922;-86
2023/10/25 11:09:32;;;;;;;;;;;;;;;12.09;100.00;98665.72;4625034;28;10000255;-86
2023/10/25 11:12:07;;;;;;;;;;;;;;;12.04;100.00;98667.25;4963010;28;20021;-87
2023/10/25 11:14:42;;;;;;;;;;;;;;;12.11;100.00;98655.81;4968100;28;19926;-86
2023/10/25 11:17:08;;;;;;;;;;;;;;;12.15;100.00;98658.91;4964796;28;19930;-85
2023/10/25 11:19:33;;;;;;;;;;;;;;;12.19;100.00;98654.94;4967875;28;19922;-88
2023/10/25 11:21:59;;;;;;;;;;;;;;;12.19;100.00;98660.22;4623367;28;9999991;-86
2023/10/25 11:24:25;;;;;;;;;;;;;;;12.14;100.00;98660.72;4969673;28;19918;-87
2023/10/25 11:26:50;;;;;;;;;;;;;;;12.14;100.00;98650.16;4968424;28;19928;-87
2023/10/25 11:29:15;;;;;;;;;;;;;;;12.08;100.00;98647.38;4967975;28;19930;-85
2023/10/25 11:31:42;;;;;;;;;;;;;;;12.10;100.00;98637.47;4964830;28;19984;-87
2023/10/25 11:34:07;;;;;;;;;;;;;;;12.21;100.00;98626.47;4969519;28;19929;-86
2023/10/25 11:36:33;;;;;;;;;;;;;;;12.31;100.00;98605.94;4967188;28;19923;-87
2023/10/25 11:39:06;;;;;;;;;;;;;;;12.42;100.00;98597.56;4964140;28;20325;-86
2023/10/25 11:41:32;;;;;;;;;;;;;;;12.50;100.00;98589.53;4968851;28;19922;-85
2023/10/25 11:43:58;;;;;;;;;;;;;;;12.52;100.00;98582.25;4971790;28;19922;-86
2023/10/25 11:46:28;;;;;;;;;;;;;;;12.60;100.00;98568.97;4963398;28;19922;-87
2023/10/25 11:48:58;;;;;;;;;;;;;;;12.70;100.00;98582.75;4966714;28;19929;-87
2023/10/25 11:51:24;;;;;;;;;;;;;;;12.75;100.00;98582.22;4967027;28;20291;-87
2023/10/25 11:53:50;;;;;;;;;;;;;;;12.70;100.00;98590.72;4966101;28;19933;-86
2023/10/25 11:56:15;;;;;;;;;;;;;;;12.75;100.00;98586.69;4966758;28;19945;-86
2023/10/25 11:58:40;;;;;;;;;;;;;;;12.70;100.00;98589.88;4965498;28;19930;-87
2023/10/25 12:01:06;;;;;;;;;;;;;;;12.63;100.00;98600.34;4969785;28;20024;-87
2023/10/25 12:03:31;;;;;;;;;;;;;;;12.67;100.00;98604.28;4978847;28;19922;-86
2023/10/25 12:05:57;;;;;;;;;;;;;;;12.68;100.00;98608.56;4966095;28;19926;-87
2023/10/25 12:08:22;;;;;;;;;;;;;;;12.73;100.00;98592.97;4966802;28;19921;-87
2023/10/25 12:10:47;;;;;;;;;;;;;;;12.81;100.00;98596.56;4968072;28;19946;-81
2023/10/25 12:13:18;;;;;;;;;;;;;;;12.92;100.00;98593.47;4790867;28;10000117;-84
2023/10/25 12:15:43;;;;;;;;;;;;;;;12.99;100.00;98594.41;4964497;28;19933;-88
2023/10/25 12:18:09;;;;;;;;;;;;;;;13.02;100.00;98586.91;4964566;28;19922;-88
2023/10/25 12:20:34;;;;;;;;;;;;;;;12.96;100.00;98587.63;4964930;28;19927;-88
2023/10/25 12:23:01;;;;;;;;;;;;;;;12.91;100.00;98587.34;4963605;28;19965;-87
2023/10/25 12:25:26;;;;;;;;;;;;;;;12.93;100.00;98587.16;4960124;28;19926;-86
2023/10/25 12:27:52;;;;;;;;;;;;;;;13.02;100.00;98584.25;4963244;28;19929;-87
2023/10/25 12:30:17;;;;;;;;;;;;;;;13.03;100.00;98582.44;4960025;28;19926;-86
2023/10/25 12:32:42;;;;;;;;;;;;;;;13.10;100.00;98592.13;4968204;28;19926;-87
2023/10/25 12:35:08;;;;;;;;;;;;;;;13.07;100.00;98596.97;4272654;28;10000757;-87
2023/10/25 12:37:33;;;;;;;;;;;;;;;13.08;100.00;98593.28;4967294;28;19922;-83
2023/10/25 12:39:58;;;;;;;;;;;;;;;13.15;100.00;98578.34;4966708;28;19922;-85
2023/10/25 12:42:24;;;;;;;;;;;;;;;13.15;100.00;98577.53;4967820;28;19930;-85
2023/10/25 12:44:49;;;;;;;;;;;;;;;13.22;100.00;98579.28;4967154;28;19926;-84